createdAt,value
2023-04-27T00:00:40.222Z,86.94
2023-04-27T00:03:07.510Z,86.57
2023-04-27T00:05:39.516Z,87.23
2023-04-27T00:08:07.088Z,86.40
2023-04-27T00:10:33.591Z,87.68
2023-04-27T00:13:00.516Z,86.41
2023-04-27T00:15:27.573Z,87.15
2023-04-27T00:17:55.416Z,86.90
2023-04-27T00:20:21.851Z,87.81
2023-04-27T00:22:48.278Z,88.21
2023-04-27T00:25:14.728Z,88.23
2023-04-27T00:27:41.203Z,87.53
2023-04-27T00:30:08.200Z,87.84
2023-04-27T00:32:34.749Z,87.90
2023-04-27T00:35:01.153Z,87.12
2023-04-27T00:37:27.506Z,88.00
2023-04-27T00:39:53.857Z,88.57
2023-04-27T00:42:20.566Z,87.86
2023-04-27T00:44:47.356Z,88.17
2023-04-27T00:47:14.640Z,87.32
2023-04-27T00:49:41.206Z,87.66
2023-04-27T00:52:07.830Z,87.37
2023-04-27T00:54:34.478Z,88.08
2023-04-27T00:57:00.929Z,87.25
2023-04-27T00:59:27.320Z,87.57
2023-04-27T01:01:55.062Z,87.47
2023-04-27T01:04:22.252Z,88.03
2023-04-27T01:06:48.785Z,87.31
2023-04-27T01:09:16.526Z,87.59
2023-04-27T01:11:42.908Z,87.60
2023-04-27T01:14:09.818Z,87.84
2023-04-27T01:16:37.265Z,88.74
2023-04-27T01:19:04.517Z,87.13
2023-04-27T01:21:31.214Z,88.05
2023-04-27T01:23:57.596Z,87.61
2023-04-27T01:26:24.094Z,88.03
2023-04-27T01:28:50.516Z,87.56
2023-04-27T01:31:17.235Z,88.16
2023-04-27T01:33:43.678Z,88.19
2023-04-27T01:36:10.415Z,87.88
2023-04-27T01:38:37.174Z,86.88
2023-04-27T01:41:09.064Z,87.52
2023-04-27T01:43:39.443Z,87.14
2023-04-27T01:46:11.359Z,86.74
2023-04-27T01:48:39.052Z,87.97
2023-04-27T01:51:05.537Z,87.99
2023-04-27T01:53:32.026Z,88.70
2023-04-27T01:55:59.671Z,88.66
2023-04-27T01:58:26.897Z,87.90
2023-04-27T02:00:53.855Z,88.45
2023-04-27T02:03:20.478Z,88.59
2023-04-27T02:05:47.913Z,88.15
2023-04-27T02:08:14.742Z,87.99
2023-04-27T02:10:41.302Z,87.94
2023-04-27T02:13:07.754Z,87.98
2023-04-27T02:15:35.345Z,87.81
2023-04-27T02:18:03.494Z,87.67
2023-04-27T02:20:31.374Z,87.93
2023-04-27T02:22:57.845Z,88.12
2023-04-27T02:25:24.672Z,88.42
2023-04-27T02:27:51.180Z,88.63
2023-04-27T02:30:18.186Z,88.74
2023-04-27T02:32:45.860Z,88.63
2023-04-27T02:35:13.406Z,88.51
2023-04-27T02:37:39.929Z,88.51
2023-04-27T02:40:08.027Z,89.09
2023-04-27T02:42:34.500Z,88.63
2023-04-27T02:45:00.925Z,89.21
2023-04-27T02:47:27.424Z,88.75
2023-04-27T02:49:53.944Z,88.96
2023-04-27T02:52:20.611Z,89.41
2023-04-27T02:54:47.111Z,88.98
2023-04-27T02:57:13.652Z,89.30
2023-04-27T02:59:40.097Z,89.38
2023-04-27T03:02:06.545Z,88.83
2023-04-27T03:04:33.042Z,89.36
2023-04-27T03:06:59.452Z,89.52
2023-04-27T03:09:25.853Z,88.69
2023-04-27T03:11:52.768Z,89.14
2023-04-27T03:14:19.228Z,89.15
2023-04-27T03:16:45.676Z,89.57
2023-04-27T03:19:12.489Z,89.18
2023-04-27T03:21:39.362Z,88.39
2023-04-27T03:24:05.909Z,88.84
2023-04-27T03:26:32.422Z,89.29
2023-04-27T03:28:58.900Z,89.68
2023-04-27T03:31:25.410Z,88.67
2023-04-27T03:33:51.818Z,88.84
2023-04-27T03:36:18.243Z,89.43
2023-04-27T03:38:44.671Z,89.12
2023-04-27T03:41:11.571Z,88.75
2023-04-27T03:43:37.993Z,88.87
2023-04-27T03:46:04.570Z,88.55
2023-04-27T03:48:31.104Z,89.73
2023-04-27T03:50:57.523Z,89.47
2023-04-27T03:53:23.998Z,88.25
2023-04-27T03:55:50.588Z,88.22
2023-04-27T03:58:17.884Z,88.55
2023-04-27T04:00:44.567Z,89.36
2023-04-27T04:03:11.118Z,89.54
2023-04-27T04:05:37.651Z,89.47
2023-04-27T04:08:04.301Z,89.14
2023-04-27T04:10:30.661Z,89.47
2023-04-27T04:12:57.129Z,89.93
2023-04-27T04:15:23.660Z,89.13
2023-04-27T04:17:50.143Z,88.80
2023-04-27T04:20:17.733Z,89.02
2023-04-27T04:22:44.312Z,89.42
2023-04-27T04:25:10.692Z,89.02
2023-04-27T04:27:37.597Z,88.60
2023-04-27T04:30:06.137Z,89.11
2023-04-27T04:32:33.654Z,88.70
2023-04-27T04:35:01.495Z,88.63
2023-04-27T04:37:28.200Z,88.20
2023-04-27T04:39:54.645Z,88.41
2023-04-27T04:42:21.354Z,87.92
2023-04-27T04:44:47.826Z,87.72
2023-04-27T04:47:14.269Z,88.49
2023-04-27T04:49:40.647Z,88.49
2023-04-27T04:52:07.024Z,88.95
2023-04-27T04:54:33.420Z,89.02
2023-04-27T04:57:00.859Z,89.42
2023-04-27T04:59:27.263Z,89.05
2023-04-27T05:01:56.534Z,88.43
2023-04-27T05:04:23.277Z,89.15
2023-04-27T05:06:49.723Z,89.58
2023-04-27T05:09:16.093Z,89.07
2023-04-27T05:11:42.454Z,89.63
2023-04-27T05:14:09.101Z,89.59
2023-04-27T05:16:35.694Z,89.17
2023-04-27T05:19:02.270Z,90.01
2023-04-27T05:21:28.637Z,89.42
2023-04-27T05:23:55.037Z,89.33
2023-04-27T05:26:21.635Z,89.86
2023-04-27T05:28:49.292Z,89.06
2023-04-27T05:31:15.942Z,88.88
2023-04-27T05:33:42.474Z,89.84
2023-04-27T05:36:09.400Z,88.88
2023-04-27T05:38:39.949Z,90.14
2023-04-27T05:41:06.442Z,89.43
2023-04-27T05:43:34.900Z,89.90
2023-04-27T05:46:01.407Z,89.26
2023-04-27T05:48:27.853Z,90.17
2023-04-27T05:51:04.159Z,89.91
2023-04-27T05:53:32.328Z,89.19
2023-04-27T05:55:59.366Z,88.94
2023-04-27T05:58:25.845Z,88.42
2023-04-27T06:00:52.797Z,87.65
2023-04-27T06:03:19.527Z,88.04
2023-04-27T06:05:46.163Z,87.17
2023-04-27T06:08:12.982Z,87.64
2023-04-27T06:10:39.590Z,86.74
2023-04-27T06:13:06.156Z,86.69
2023-04-27T06:15:32.673Z,87.63
2023-04-27T06:17:59.213Z,87.20
2023-04-27T06:20:25.812Z,86.39
2023-04-27T06:22:52.199Z,86.05
2023-04-27T06:25:18.590Z,86.19
2023-04-27T06:27:45.030Z,85.66
2023-04-27T06:30:12.063Z,84.78
2023-04-27T06:32:38.520Z,85.09
2023-04-27T06:35:05.343Z,84.14
2023-04-27T06:37:32.727Z,83.97
2023-04-27T06:39:59.215Z,86.63
2023-04-27T06:42:25.678Z,84.21
2023-04-27T06:44:55.120Z,84.78
2023-04-27T06:47:22.292Z,83.55
2023-04-27T06:49:49.823Z,84.04
2023-04-27T06:52:16.697Z,83.02
2023-04-27T06:54:43.273Z,82.48
2023-04-27T06:57:09.751Z,82.16
2023-04-27T06:59:36.200Z,78.93
2023-04-27T07:02:03.259Z,79.06
2023-04-27T07:04:30.229Z,78.98
2023-04-27T07:06:56.772Z,77.60
2023-04-27T07:09:27.641Z,76.45
2023-04-27T07:11:54.851Z,76.40
2023-04-27T07:14:21.427Z,75.06
2023-04-27T07:16:47.873Z,75.81
2023-04-27T07:19:14.585Z,74.25
2023-04-27T07:21:41.142Z,72.36
2023-04-27T07:24:07.891Z,72.54
2023-04-27T07:26:34.312Z,70.44
2023-04-27T07:29:02.790Z,69.08
2023-04-27T07:31:33.282Z,69.92
2023-04-27T07:34:00.552Z,68.94
2023-04-27T07:36:27.618Z,69.52
2023-04-27T07:38:54.122Z,67.62
2023-04-27T07:41:21.110Z,66.19
2023-04-27T07:43:48.630Z,66.97
2023-04-27T07:46:15.091Z,65.91
2023-04-27T07:48:42.182Z,65.22
2023-04-27T07:51:08.603Z,64.37
2023-04-27T07:53:35.608Z,63.05
2023-04-27T07:56:02.898Z,62.83
2023-04-27T07:58:29.389Z,61.91
2023-04-27T08:00:56.018Z,60.97
2023-04-27T08:03:23.996Z,62.41
2023-04-27T08:05:50.736Z,63.36
2023-04-27T08:08:18.052Z,62.58
2023-04-27T08:10:44.534Z,61.26
2023-04-27T08:13:11.123Z,59.64
2023-04-27T08:15:37.506Z,58.48
2023-04-27T08:18:04.043Z,59.28
2023-04-27T08:20:30.507Z,57.79
2023-04-27T08:22:57.236Z,59.50
2023-04-27T08:25:23.640Z,57.04
2023-04-27T08:27:50.029Z,59.21
2023-04-27T08:30:17.240Z,58.65
2023-04-27T08:32:43.667Z,58.73
2023-04-27T08:35:10.303Z,59.06
2023-04-27T08:37:36.892Z,57.44
2023-04-27T08:40:06.095Z,56.94
2023-04-27T08:42:32.797Z,56.47
2023-04-27T08:44:59.580Z,56.73
2023-04-27T08:47:35.067Z,55.35
2023-04-27T08:50:08.361Z,56.02
2023-04-27T08:52:34.776Z,53.48
2023-04-27T08:55:01.204Z,53.62
2023-04-27T08:57:27.631Z,51.81
2023-04-27T09:00:01.180Z,54.81
2023-04-27T09:02:29.617Z,54.80
2023-04-27T09:04:56.953Z,53.08
2023-04-27T09:07:23.565Z,52.83
2023-04-27T09:09:50.214Z,53.22
2023-04-27T09:12:21.864Z,52.05
2023-04-27T09:15:03.755Z,53.20
2023-04-27T09:17:30.957Z,51.63
2023-04-27T09:20:10.695Z,53.35
2023-04-27T09:22:45.528Z,52.96
2023-04-27T09:25:29.465Z,53.92
2023-04-27T09:27:57.941Z,49.58
2023-04-27T09:30:25.477Z,48.35
2023-04-27T09:33:02.014Z,48.00
2023-04-27T09:35:32.489Z,50.33
2023-04-27T09:37:59.928Z,50.13
2023-04-27T09:40:28.020Z,52.17
2023-04-27T09:42:56.943Z,49.90
2023-04-27T09:45:25.196Z,50.96
2023-04-27T09:47:52.491Z,50.92
2023-04-27T09:50:19.409Z,47.60
2023-04-27T09:52:47.048Z,49.05
2023-04-27T09:55:38.280Z,48.02
2023-04-27T09:58:54.075Z,48.53
2023-04-27T10:01:47.946Z,48.40
2023-04-27T10:04:39.458Z,46.05
2023-04-27T10:07:12.924Z,46.33
2023-04-27T10:09:47.485Z,46.92
2023-04-27T10:12:16.428Z,45.96
2023-04-27T10:14:53.908Z,48.75
2023-04-27T10:17:32.156Z,47.21
2023-04-27T10:20:07.385Z,45.98
2023-04-27T10:22:42.264Z,45.23
2023-04-27T10:25:24.068Z,48.15
2023-04-27T10:28:01.488Z,47.05
2023-04-27T10:30:37.049Z,45.66
2023-04-27T10:33:09.281Z,45.80
2023-04-27T10:35:44.455Z,45.79
2023-04-27T10:38:16.660Z,45.59
2023-04-27T10:40:57.584Z,46.83
2023-04-27T10:43:27.124Z,46.88
2023-04-27T10:45:54.036Z,44.36
2023-04-27T10:48:20.817Z,46.23
2023-04-27T10:50:47.565Z,45.77
2023-04-27T10:53:15.438Z,43.89
2023-04-27T10:55:42.083Z,44.08
2023-04-27T10:58:08.577Z,48.00
2023-04-27T11:00:44.017Z,45.19
2023-04-27T11:03:23.187Z,43.83
2023-04-27T11:06:00.248Z,44.99
2023-04-27T11:08:26.778Z,43.05
2023-04-27T11:10:53.248Z,42.59
2023-04-27T11:13:24.600Z,46.61
2023-04-27T11:15:56.446Z,43.32
2023-04-27T11:18:26.302Z,39.90
2023-04-27T11:20:54.818Z,42.71
2023-04-27T11:23:25.564Z,42.21
2023-04-27T11:25:52.611Z,42.80
2023-04-27T11:28:27.959Z,41.21
2023-04-27T11:31:00.702Z,44.43
2023-04-27T11:33:28.066Z,43.08
2023-04-27T11:35:55.082Z,42.19
2023-04-27T11:38:22.150Z,41.61
2023-04-27T11:41:04.270Z,42.50
2023-04-27T11:43:30.948Z,40.25
2023-04-27T11:45:58.763Z,39.76
2023-04-27T11:48:27.065Z,42.13
2023-04-27T11:50:53.595Z,44.26
2023-04-27T11:53:36.517Z,40.58
2023-04-27T11:56:05.681Z,40.82
2023-04-27T11:58:36.657Z,39.39
2023-04-27T12:01:07.171Z,39.28
2023-04-27T12:03:33.957Z,40.66
2023-04-27T12:06:16.098Z,38.78
2023-04-27T12:08:47.281Z,40.03
2023-04-27T12:11:13.741Z,41.70
2023-04-27T12:13:40.764Z,39.26
2023-04-27T12:16:07.520Z,39.58
2023-04-27T12:18:34.044Z,40.94
2023-04-27T12:21:02.994Z,41.68
2023-04-27T12:23:29.957Z,39.11
2023-04-27T12:25:56.545Z,40.07
2023-04-27T12:28:23.395Z,40.15
2023-04-27T12:30:49.933Z,40.68
2023-04-27T12:33:16.735Z,39.69
2023-04-27T12:35:43.280Z,41.79
2023-04-27T12:38:09.972Z,40.83
2023-04-27T12:40:36.580Z,41.89
2023-04-27T12:43:02.953Z,41.04
2023-04-27T12:45:29.458Z,39.64
2023-04-27T12:48:03.312Z,40.86
2023-04-27T12:50:31.961Z,40.25
2023-04-27T12:52:58.471Z,38.59
2023-04-27T12:55:33.147Z,39.52
2023-04-27T12:58:00.490Z,35.37
2023-04-27T13:00:27.567Z,38.03
2023-04-27T13:02:54.198Z,40.07
2023-04-27T13:05:22.106Z,40.50
2023-04-27T13:07:48.777Z,40.10
2023-04-27T13:10:15.359Z,39.28
2023-04-27T13:12:41.748Z,39.22
2023-04-27T13:15:09.149Z,39.18
2023-04-27T13:17:35.533Z,37.65
2023-04-27T13:20:02.047Z,40.50
2023-04-27T13:22:28.591Z,40.62
2023-04-27T13:24:55.157Z,40.94
2023-04-27T13:27:22.386Z,38.04
2023-04-27T13:29:51.039Z,40.67
2023-04-27T13:32:17.696Z,40.40
2023-04-27T13:34:44.405Z,40.78
2023-04-27T13:37:10.852Z,37.95
2023-04-27T13:39:37.716Z,41.94
2023-04-27T13:42:04.396Z,38.31
2023-04-27T13:44:31.847Z,39.62
2023-04-27T13:46:58.452Z,42.31
2023-04-27T13:49:25.924Z,43.46
2023-04-27T13:51:52.735Z,40.26
2023-04-27T13:54:20.565Z,38.83
2023-04-27T13:56:47.038Z,38.60
2023-04-27T13:59:13.781Z,40.65
2023-04-27T14:01:40.516Z,39.87
2023-04-27T14:04:07.557Z,39.33
2023-04-27T14:06:34.134Z,36.75
2023-04-27T14:09:00.504Z,39.01
2023-04-27T14:11:27.007Z,37.67
2023-04-27T14:13:53.461Z,37.84
2023-04-27T14:16:20.747Z,36.86
2023-04-27T14:18:47.213Z,38.35
2023-04-27T14:21:13.666Z,38.96
2023-04-27T14:23:40.060Z,37.77
2023-04-27T14:26:06.410Z,37.44
2023-04-27T14:28:32.802Z,39.95
2023-04-27T14:30:59.174Z,37.69
2023-04-27T14:33:25.564Z,35.76
2023-04-27T14:35:51.981Z,36.93
2023-04-27T14:38:18.372Z,38.32
2023-04-27T14:40:44.766Z,40.47
2023-04-27T14:43:11.291Z,39.23
2023-04-27T14:45:50.275Z,39.00
2023-04-27T14:48:19.286Z,40.07
2023-04-27T14:50:45.872Z,37.24
2023-04-27T14:53:12.256Z,37.64
2023-04-27T14:55:38.759Z,39.27
2023-04-27T14:58:05.524Z,39.59
2023-04-27T15:00:32.059Z,38.99
2023-04-27T15:02:58.506Z,41.45
2023-04-27T15:05:25.317Z,38.14
2023-04-27T15:07:51.756Z,40.09
2023-04-27T15:10:18.590Z,39.50
2023-04-27T15:12:45.789Z,39.56
2023-04-27T15:15:15.093Z,37.70
2023-04-27T15:17:41.712Z,39.38
2023-04-27T15:20:08.667Z,36.52
2023-04-27T15:22:35.059Z,38.71
2023-04-27T15:25:01.434Z,38.72
2023-04-27T15:27:27.850Z,38.92
2023-04-27T15:29:54.853Z,36.39
2023-04-27T15:32:23.235Z,36.84
2023-04-27T15:34:49.917Z,38.71
2023-04-27T15:37:16.465Z,36.27
2023-04-27T15:39:42.937Z,38.48
2023-04-27T15:42:09.369Z,37.56
2023-04-27T15:44:36.289Z,40.59
2023-04-27T15:47:03.219Z,38.94
2023-04-27T15:49:30.403Z,39.89
2023-04-27T15:51:56.781Z,39.19
2023-04-27T15:54:23.238Z,37.65
2023-04-27T15:56:49.664Z,38.49
2023-04-27T15:59:16.392Z,39.97
2023-04-27T16:01:43.031Z,40.35
2023-04-27T16:04:09.917Z,38.82
2023-04-27T16:06:36.828Z,38.02
2023-04-27T16:09:04.334Z,40.19
2023-04-27T16:11:31.477Z,40.13
2023-04-27T16:13:58.529Z,40.03
2023-04-27T16:16:25.058Z,39.95
2023-04-27T16:18:51.550Z,40.64
2023-04-27T16:21:18.197Z,41.73
2023-04-27T16:23:44.751Z,40.35
2023-04-27T16:26:11.650Z,42.46
2023-04-27T16:28:38.197Z,41.26
2023-04-27T16:31:04.701Z,40.64
2023-04-27T16:33:31.264Z,42.02
2023-04-27T16:35:57.762Z,42.63
2023-04-27T16:38:24.309Z,41.75
2023-04-27T16:40:51.912Z,43.21
2023-04-27T16:43:18.471Z,42.22
2023-04-27T16:45:44.886Z,42.27
2023-04-27T16:48:11.953Z,41.89
2023-04-27T16:50:38.650Z,43.79
2023-04-27T16:53:06.932Z,42.98
2023-04-27T16:55:34.125Z,43.67
2023-04-27T16:58:00.773Z,43.48
2023-04-27T17:00:28.062Z,43.29
2023-04-27T17:02:55.277Z,44.20
2023-04-27T17:05:21.826Z,45.00
2023-04-27T17:07:48.242Z,43.65
2023-04-27T17:10:15.574Z,43.70
2023-04-27T17:12:42.048Z,44.80
2023-04-27T17:15:10.511Z,41.61
2023-04-27T17:17:36.961Z,43.29
2023-04-27T17:20:04.248Z,41.92
2023-04-27T17:22:31.050Z,43.96
2023-04-27T17:24:57.628Z,43.49
2023-04-27T17:27:24.048Z,42.40
2023-04-27T17:29:51.750Z,44.39
2023-04-27T17:32:18.285Z,42.15
2023-04-27T17:34:45.205Z,43.06
2023-04-27T17:37:11.699Z,44.44
2023-04-27T17:39:38.180Z,45.25
2023-04-27T17:42:06.746Z,44.72
2023-04-27T17:44:34.125Z,44.33
2023-04-27T17:47:00.631Z,47.08
2023-04-27T17:49:27.127Z,44.64
2023-04-27T17:51:53.475Z,44.77
2023-04-27T17:54:19.880Z,46.57
2023-04-27T17:56:46.558Z,46.61
2023-04-27T17:59:13.208Z,45.37
2023-04-27T18:01:39.851Z,46.27
2023-04-27T18:04:07.103Z,46.64
2023-04-27T18:06:34.070Z,46.98
2023-04-27T18:09:00.616Z,46.86
2023-04-27T18:11:27.056Z,47.63
2023-04-27T18:13:57.907Z,46.77
2023-04-27T18:16:24.826Z,48.16
2023-04-27T18:18:51.254Z,47.41
2023-04-27T18:21:17.619Z,48.08
2023-04-27T18:23:44.631Z,48.32
2023-04-27T18:26:11.712Z,47.79
2023-04-27T18:28:40.107Z,48.20
2023-04-27T18:31:16.909Z,48.63
2023-04-27T18:33:47.105Z,48.52
2023-04-27T18:36:13.703Z,48.84
2023-04-27T18:38:40.539Z,49.65
2023-04-27T18:41:07.647Z,48.84
2023-04-27T18:43:36.506Z,47.85
2023-04-27T18:46:04.211Z,48.89
2023-04-27T18:48:30.927Z,49.28
2023-04-27T18:50:57.284Z,50.54
2023-04-27T18:53:23.956Z,49.43
2023-04-27T18:55:50.511Z,50.42
2023-04-27T18:58:16.962Z,49.48
2023-04-27T19:00:43.421Z,49.85
2023-04-27T19:03:10.005Z,51.63
2023-04-27T19:05:38.963Z,51.68
2023-04-27T19:08:05.407Z,51.71
2023-04-27T19:10:31.783Z,53.26
2023-04-27T19:12:58.338Z,52.44
2023-04-27T19:15:24.892Z,53.70
2023-04-27T19:18:02.140Z,55.49
2023-04-27T19:20:36.283Z,54.23
2023-04-27T19:23:02.886Z,53.10
2023-04-27T19:25:29.301Z,53.47
2023-04-27T19:27:55.712Z,53.66
2023-04-27T19:30:22.094Z,52.43
2023-04-27T19:32:48.731Z,52.51
2023-04-27T19:35:15.961Z,52.29
2023-04-27T19:37:42.368Z,53.96
2023-04-27T19:40:09.400Z,55.32
2023-04-27T19:42:35.985Z,53.89
2023-04-27T19:45:03.844Z,52.98
2023-04-27T19:47:30.817Z,53.82
2023-04-27T19:49:58.942Z,52.92
2023-04-27T19:52:25.914Z,53.65
2023-04-27T19:54:55.719Z,53.06
2023-04-27T19:57:22.162Z,56.96
2023-04-27T19:59:48.709Z,53.37
2023-04-27T20:02:15.687Z,55.27
2023-04-27T20:04:43.000Z,54.08
2023-04-27T20:07:09.682Z,54.87
2023-04-27T20:09:36.115Z,56.32
2023-04-27T20:12:04.052Z,54.82
2023-04-27T20:14:33.625Z,55.46
2023-04-27T20:17:00.443Z,54.00
2023-04-27T20:19:26.972Z,55.95
2023-04-27T20:21:53.446Z,56.22
2023-04-27T20:24:19.890Z,55.04
2023-04-27T20:26:46.583Z,53.58
2023-04-27T20:29:13.085Z,56.51
2023-04-27T20:31:39.597Z,54.80
2023-04-27T20:34:06.195Z,57.35
2023-04-27T20:36:33.201Z,57.33
2023-04-27T20:39:04.944Z,54.86
2023-04-27T20:41:33.603Z,55.60
2023-04-27T20:44:00.409Z,56.29
2023-04-27T20:46:27.320Z,55.05
2023-04-27T20:48:53.975Z,55.08
2023-04-27T20:51:20.367Z,55.45
2023-04-27T20:53:46.762Z,56.49
2023-04-27T20:56:13.170Z,55.44
2023-04-27T20:58:39.605Z,54.71
2023-04-27T21:01:06.110Z,54.44
2023-04-27T21:03:32.647Z,54.91
2023-04-27T21:05:59.173Z,55.55
2023-04-27T21:08:25.922Z,55.60
2023-04-27T21:10:52.410Z,56.69
2023-04-27T21:13:19.598Z,55.10
2023-04-27T21:15:46.042Z,56.08
2023-04-27T21:18:22.515Z,57.22
2023-04-27T21:20:56.018Z,57.03
2023-04-27T21:23:22.500Z,58.83
2023-04-27T21:25:48.900Z,57.35
2023-04-27T21:28:15.497Z,56.34
2023-04-27T21:30:41.968Z,59.07
2023-04-27T21:33:08.676Z,56.63
2023-04-27T21:35:35.174Z,55.88
2023-04-27T21:38:01.805Z,55.60
2023-04-27T21:40:28.206Z,56.31
2023-04-27T21:42:54.978Z,56.59
2023-04-27T21:45:21.510Z,56.13
2023-04-27T21:47:48.010Z,55.55
2023-04-27T21:50:14.566Z,56.32
2023-04-27T21:52:41.000Z,57.30
2023-04-27T21:55:07.998Z,57.50
2023-04-27T21:57:34.472Z,57.56
2023-04-27T22:00:01.604Z,56.25
2023-04-27T22:02:29.461Z,58.88
2023-04-27T22:04:56.505Z,59.05
2023-04-27T22:07:24.579Z,57.52
2023-04-27T22:09:50.963Z,57.53
2023-04-27T22:12:17.471Z,57.92
2023-04-27T22:14:43.895Z,57.59
2023-04-27T22:17:12.428Z,58.01
2023-04-27T22:19:38.864Z,57.33
2023-04-27T22:22:05.486Z,57.97
2023-04-27T22:24:31.849Z,58.60
2023-04-27T22:26:58.226Z,57.10
2023-04-27T22:29:24.820Z,58.00
2023-04-27T22:31:52.049Z,57.89
2023-04-27T22:34:18.752Z,58.81
2023-04-27T22:36:45.377Z,58.52
2023-04-27T22:39:11.838Z,57.25
2023-04-27T22:41:38.337Z,57.72
2023-04-27T22:44:04.919Z,57.89
2023-04-27T22:46:31.346Z,57.94
2023-04-27T22:48:58.605Z,57.96
2023-04-27T22:51:27.225Z,58.99
2023-04-27T22:53:54.249Z,57.43
2023-04-27T22:56:20.940Z,58.04
2023-04-27T22:58:47.352Z,57.76
2023-04-27T23:01:13.858Z,58.69
2023-04-27T23:03:40.496Z,58.56
2023-04-27T23:06:12.182Z,58.69
2023-04-27T23:08:42.009Z,58.29
2023-04-27T23:11:09.547Z,58.60
2023-04-27T23:13:37.910Z,59.02
2023-04-27T23:16:05.128Z,59.02
2023-04-27T23:18:31.569Z,58.13
2023-04-27T23:20:57.976Z,58.53
2023-04-27T23:23:24.391Z,57.53
2023-04-27T23:25:50.776Z,58.58
2023-04-27T23:28:17.191Z,59.10
2023-04-27T23:30:43.638Z,57.83
2023-04-27T23:33:10.041Z,57.86
2023-04-27T23:35:36.579Z,60.08
2023-04-27T23:38:03.126Z,58.83
2023-04-27T23:40:29.512Z,58.65
2023-04-27T23:42:56.142Z,58.88
2023-04-27T23:45:22.485Z,59.14
2023-04-27T23:47:48.879Z,58.79
2023-04-27T23:50:15.780Z,59.09
2023-04-27T23:52:42.615Z,58.82
2023-04-27T23:55:09.312Z,57.97
2023-04-27T23:57:35.720Z,58.28
